sensor_id;sensor_type;location;lat;lon;timestamp;temperature;humidity
44817;DHT22;30529;53.570;9.964;2023-01-29T00:01:55;3.70;99.90
44817;DHT22;30529;53.570;9.964;2023-01-29T00:04:21;3.60;99.90
44817;DHT22;30529;53.570;9.964;2023-01-29T00:06:47;3.70;99.90
44817;DHT22;30529;53.570;9.964;2023-01-29T00:09:13;3.70;99.90
44817;DHT22;30529;53.570;9.964;2023-01-29T00:11:40;3.60;99.90
44817;DHT22;30529;53.570;9.964;2023-01-29T00:14:06;3.70;99.90
44817;DHT22;30529;53.570;9.964;2023-01-29T00:16:32;3.70;99.90
44817;DHT22;30529;53.570;9.964;2023-01-29T00:19:00;3.70;99.90
44817;DHT22;30529;53.570;9.964;2023-01-29T00:21:27;3.70;99.90
44817;DHT22;30529;53.570;9.964;2023-01-29T00:23:53;3.80;99.90
44817;DHT22;30529;53.570;9.964;2023-01-29T00:26:20;3.80;99.90
44817;DHT22;30529;53.570;9.964;2023-01-29T00:28:46;3.80;99.90
44817;DHT22;30529;53.570;9.964;2023-01-29T00:31:15;3.80;99.90
44817;DHT22;30529;53.570;9.964;2023-01-29T00:33:41;3.80;99.90
44817;DHT22;30529;53.570;9.964;2023-01-29T00:36:09;3.80;99.90
44817;DHT22;30529;53.570;9.964;2023-01-29T00:38:37;3.80;99.90
44817;DHT22;30529;53.570;9.964;2023-01-29T00:41:11;3.80;99.90
44817;DHT22;30529;53.570;9.964;2023-01-29T00:43:56;3.80;99.90
44817;DHT22;30529;53.570;9.964;2023-01-29T00:46:40;3.90;99.90
44817;DHT22;30529;53.570;9.964;2023-01-29T00:49:08;3.90;99.90
44817;DHT22;30529;53.570;9.964;2023-01-29T00:51:35;3.90;99.90
44817;DHT22;30529;53.570;9.964;2023-01-29T00:54:01;3.90;99.90
44817;DHT22;30529;53.570;9.964;2023-01-29T00:56:28;3.90;99.90
44817;DHT22;30529;53.570;9.964;2023-01-29T00:58:55;3.90;99.90
44817;DHT22;30529;53.570;9.964;2023-01-29T01:01:21;3.90;99.90
44817;DHT22;30529;53.570;9.964;2023-01-29T01:04:09;3.90;99.90
44817;DHT22;30529;53.570;9.964;2023-01-29T01:06:39;3.90;99.90
44817;DHT22;30529;53.570;9.964;2023-01-29T01:09:06;3.90;99.90
44817;DHT22;30529;53.570;9.964;2023-01-29T01:11:51;3.90;99.90
44817;DHT22;30529;53.570;9.964;2023-01-29T01:14:18;4.00;99.90
44817;DHT22;30529;53.570;9.964;2023-01-29T01:16:48;4.00;99.90
44817;DHT22;30529;53.570;9.964;2023-01-29T01:19:14;4.00;99.90
44817;DHT22;30529;53.570;9.964;2023-01-29T01:21:41;3.90;99.90
44817;DHT22;30529;53.570;9.964;2023-01-29T01:24:13;4.00;99.90
44817;DHT22;30529;53.570;9.964;2023-01-29T01:26:40;4.00;99.90
44817;DHT22;30529;53.570;9.964;2023-01-29T01:29:06;4.00;99.90
44817;DHT22;30529;53.570;9.964;2023-01-29T01:31:32;4.00;99.90
44817;DHT22;30529;53.570;9.964;2023-01-29T01:33:58;4.00;99.90
44817;DHT22;30529;53.570;9.964;2023-01-29T01:36:24;4.10;99.90
44817;DHT22;30529;53.570;9.964;2023-01-29T01:38:50;4.10;99.90
44817;DHT22;30529;53.570;9.964;2023-01-29T01:41:18;4.00;99.90
44817;DHT22;30529;53.570;9.964;2023-01-29T01:43:53;4.00;99.90
44817;DHT22;30529;53.570;9.964;2023-01-29T01:46:21;4.00;99.90
44817;DHT22;30529;53.570;9.964;2023-01-29T01:48:52;4.00;99.90
44817;DHT22;30529;53.570;9.964;2023-01-29T01:51:20;4.00;99.90
44817;DHT22;30529;53.570;9.964;2023-01-29T01:53:55;4.00;99.90
44817;DHT22;30529;53.570;9.964;2023-01-29T01:56:26;4.00;99.90
44817;DHT22;30529;53.570;9.964;2023-01-29T01:58:55;4.00;99.90
44817;DHT22;30529;53.570;9.964;2023-01-29T02:01:23;4.10;99.90
44817;DHT22;30529;53.570;9.964;2023-01-29T02:04:13;4.00;99.90
44817;DHT22;30529;53.570;9.964;2023-01-29T02:07:02;4.10;99.90
44817;DHT22;30529;53.570;9.964;2023-01-29T02:09:57;4.00;99.90
44817;DHT22;30529;53.570;9.964;2023-01-29T02:12:25;4.00;99.90
44817;DHT22;30529;53.570;9.964;2023-01-29T02:14:53;4.00;99.90
44817;DHT22;30529;53.570;9.964;2023-01-29T02:17:19;4.10;99.90
44817;DHT22;30529;53.570;9.964;2023-01-29T02:23:07;4.00;99.90
44817;DHT22;30529;53.570;9.964;2023-01-29T02:28:34;4.00;99.90
44817;DHT22;30529;53.570;9.964;2023-01-29T02:34:17;4.00;99.90
44817;DHT22;30529;53.570;9.964;2023-01-29T02:36:54;4.00;99.90
44817;DHT22;30529;53.570;9.964;2023-01-29T02:39:36;4.00;99.90
44817;DHT22;30529;53.570;9.964;2023-01-29T02:44:42;4.00;99.90
44817;DHT22;30529;53.570;9.964;2023-01-29T02:47:34;4.00;99.90
44817;DHT22;30529;53.570;9.964;2023-01-29T02:52:56;4.10;99.90
44817;DHT22;30529;53.570;9.964;2023-01-29T02:55:32;4.10;99.90
44817;DHT22;30529;53.570;9.964;2023-01-29T02:58:25;4.10;99.90
44817;DHT22;30529;53.570;9.964;2023-01-29T03:00:54;4.10;99.90
44817;DHT22;30529;53.570;9.964;2023-01-29T03:03:30;4.20;99.90
44817;DHT22;30529;53.570;9.964;2023-01-29T03:06:14;4.10;99.90
44817;DHT22;30529;53.570;9.964;2023-01-29T03:08:51;4.10;99.90
44817;DHT22;30529;53.570;9.964;2023-01-29T03:11:19;4.10;99.90
44817;DHT22;30529;53.570;9.964;2023-01-29T03:13:55;4.00;99.90
44817;DHT22;30529;53.570;9.964;2023-01-29T03:16:52;4.00;99.90
44817;DHT22;30529;53.570;9.964;2023-01-29T03:19:38;4.00;99.90
44817;DHT22;30529;53.570;9.964;2023-01-29T03:22:06;4.00;99.90
44817;DHT22;30529;53.570;9.964;2023-01-29T03:24:45;4.00;99.90
44817;DHT22;30529;53.570;9.964;2023-01-29T03:27:44;4.00;99.90
44817;DHT22;30529;53.570;9.964;2023-01-29T03:30:32;4.00;99.90
44817;DHT22;30529;53.570;9.964;2023-01-29T03:33:19;4.00;99.90
44817;DHT22;30529;53.570;9.964;2023-01-29T03:36:02;4.00;99.90
44817;DHT22;30529;53.570;9.964;2023-01-29T03:38:30;4.00;99.90
44817;DHT22;30529;53.570;9.964;2023-01-29T03:41:01;4.00;99.90
44817;DHT22;30529;53.570;9.964;2023-01-29T03:43:48;4.00;99.90
44817;DHT22;30529;53.570;9.964;2023-01-29T03:46:35;4.00;99.90
44817;DHT22;30529;53.570;9.964;2023-01-29T03:49:25;4.00;99.90
44817;DHT22;30529;53.570;9.964;2023-01-29T03:54:55;4.00;99.90
44817;DHT22;30529;53.570;9.964;2023-01-29T03:57:38;4.00;99.90
44817;DHT22;30529;53.570;9.964;2023-01-29T04:00:15;4.10;99.90
44817;DHT22;30529;53.570;9.964;2023-01-29T04:05:18;4.00;99.90
44817;DHT22;30529;53.570;9.964;2023-01-29T04:07:45;4.00;99.90
44817;DHT22;30529;53.570;9.964;2023-01-29T04:10:17;4.00;99.90
44817;DHT22;30529;53.570;9.964;2023-01-29T04:12:59;4.00;99.90
44817;DHT22;30529;53.570;9.964;2023-01-29T04:15:29;4.00;99.90
44817;DHT22;30529;53.570;9.964;2023-01-29T04:17:56;4.00;99.90
44817;DHT22;30529;53.570;9.964;2023-01-29T04:20:22;4.00;99.90
44817;DHT22;30529;53.570;9.964;2023-01-29T04:22:51;4.00;99.90
44817;DHT22;30529;53.570;9.964;2023-01-29T04:25:21;4.00;99.90
44817;DHT22;30529;53.570;9.964;2023-01-29T04:28:03;4.00;99.90
44817;DHT22;30529;53.570;9.964;2023-01-29T04:33:17;4.00;99.90
44817;DHT22;30529;53.570;9.964;2023-01-29T04:36:15;4.10;99.90
44817;DHT22;30529;53.570;9.964;2023-01-29T04:41:31;4.10;99.90
44817;DHT22;30529;53.570;9.964;2023-01-29T04:44:29;4.10;99.90
44817;DHT22;30529;53.570;9.964;2023-01-29T04:49:55;4.00;99.90
44817;DHT22;30529;53.570;9.964;2023-01-29T04:58:18;4.00;99.90
44817;DHT22;30529;53.570;9.964;2023-01-29T05:00:48;4.00;99.90
44817;DHT22;30529;53.570;9.964;2023-01-29T05:03:15;4.00;99.90
44817;DHT22;30529;53.570;9.964;2023-01-29T05:05:46;4.00;99.90
44817;DHT22;30529;53.570;9.964;2023-01-29T05:08:16;4.00;99.90
44817;DHT22;30529;53.570;9.964;2023-01-29T05:10:45;4.00;99.90
44817;DHT22;30529;53.570;9.964;2023-01-29T05:13:13;4.00;99.90
44817;DHT22;30529;53.570;9.964;2023-01-29T05:15:54;4.00;99.90
44817;DHT22;30529;53.570;9.964;2023-01-29T05:18:21;4.00;99.90
44817;DHT22;30529;53.570;9.964;2023-01-29T05:20:48;4.10;99.90
44817;DHT22;30529;53.570;9.964;2023-01-29T05:23:20;4.10;99.90
44817;DHT22;30529;53.570;9.964;2023-01-29T05:25:47;4.00;99.90
44817;DHT22;30529;53.570;9.964;2023-01-29T05:28:13;4.00;99.90
44817;DHT22;30529;53.570;9.964;2023-01-29T05:30:43;4.00;99.90
44817;DHT22;30529;53.570;9.964;2023-01-29T05:33:20;4.00;99.90
44817;DHT22;30529;53.570;9.964;2023-01-29T05:35:47;4.00;99.90
44817;DHT22;30529;53.570;9.964;2023-01-29T05:38:14;4.00;99.90
44817;DHT22;30529;53.570;9.964;2023-01-29T05:40:41;4.00;99.90
44817;DHT22;30529;53.570;9.964;2023-01-29T05:43:15;4.00;99.90
44817;DHT22;30529;53.570;9.964;2023-01-29T05:45:42;3.90;99.90
44817;DHT22;30529;53.570;9.964;2023-01-29T05:48:08;3.90;99.90
44817;DHT22;30529;53.570;9.964;2023-01-29T05:50:34;3.90;99.90
44817;DHT22;30529;53.570;9.964;2023-01-29T05:53:00;3.90;99.90
44817;DHT22;30529;53.570;9.964;2023-01-29T05:55:27;3.90;99.90
44817;DHT22;30529;53.570;9.964;2023-01-29T05:57:56;3.90;99.90
44817;DHT22;30529;53.570;9.964;2023-01-29T06:00:22;3.90;99.90
44817;DHT22;30529;53.570;9.964;2023-01-29T06:02:49;3.90;99.90
44817;DHT22;30529;53.570;9.964;2023-01-29T06:05:15;3.90;99.90
44817;DHT22;30529;53.570;9.964;2023-01-29T06:07:41;3.90;99.90
44817;DHT22;30529;53.570;9.964;2023-01-29T06:10:15;3.90;99.90
44817;DHT22;30529;53.570;9.964;2023-01-29T06:12:42;3.90;99.90
44817;DHT22;30529;53.570;9.964;2023-01-29T06:15:09;3.90;99.90
44817;DHT22;30529;53.570;9.964;2023-01-29T06:17:36;4.00;99.90
44817;DHT22;30529;53.570;9.964;2023-01-29T06:20:03;4.00;99.90
44817;DHT22;30529;53.570;9.964;2023-01-29T06:22:29;4.00;99.90
44817;DHT22;30529;53.570;9.964;2023-01-29T06:24:55;3.90;99.90
44817;DHT22;30529;53.570;9.964;2023-01-29T06:27:21;3.90;99.90
44817;DHT22;30529;53.570;9.964;2023-01-29T06:29:47;4.00;99.90
44817;DHT22;30529;53.570;9.964;2023-01-29T06:32:13;4.00;99.90
44817;DHT22;30529;53.570;9.964;2023-01-29T06:34:39;4.00;99.90
44817;DHT22;30529;53.570;9.964;2023-01-29T06:37:05;4.00;99.90
44817;DHT22;30529;53.570;9.964;2023-01-29T06:39:33;3.90;99.90
44817;DHT22;30529;53.570;9.964;2023-01-29T06:41:59;3.90;99.90
44817;DHT22;30529;53.570;9.964;2023-01-29T06:44:25;3.80;99.90
44817;DHT22;30529;53.570;9.964;2023-01-29T06:46:51;3.80;99.90
44817;DHT22;30529;53.570;9.964;2023-01-29T06:49:17;3.80;99.90
44817;DHT22;30529;53.570;9.964;2023-01-29T06:51:43;3.80;99.90
44817;DHT22;30529;53.570;9.964;2023-01-29T06:54:09;3.80;99.90
44817;DHT22;30529;53.570;9.964;2023-01-29T06:56:35;3.80;99.90
44817;DHT22;30529;53.570;9.964;2023-01-29T06:59:01;3.80;99.90
44817;DHT22;30529;53.570;9.964;2023-01-29T07:01:27;3.80;99.90
44817;DHT22;30529;53.570;9.964;2023-01-29T07:04:07;3.80;99.90
44817;DHT22;30529;53.570;9.964;2023-01-29T07:06:34;3.80;99.90
44817;DHT22;30529;53.570;9.964;2023-01-29T07:09:03;3.80;99.90
44817;DHT22;30529;53.570;9.964;2023-01-29T07:11:29;3.80;99.90
44817;DHT22;30529;53.570;9.964;2023-01-29T07:14:05;3.80;99.90
44817;DHT22;30529;53.570;9.964;2023-01-29T07:16:32;3.80;99.90
44817;DHT22;30529;53.570;9.964;2023-01-29T07:19:01;3.80;99.90
44817;DHT22;30529;53.570;9.964;2023-01-29T07:21:27;3.80;99.90
44817;DHT22;30529;53.570;9.964;2023-01-29T07:23:59;3.90;99.90
44817;DHT22;30529;53.570;9.964;2023-01-29T07:26:28;3.80;99.90
44817;DHT22;30529;53.570;9.964;2023-01-29T07:28:54;3.80;99.90
44817;DHT22;30529;53.570;9.964;2023-01-29T07:31:20;3.80;99.90
44817;DHT22;30529;53.570;9.964;2023-01-29T07:33:47;3.70;99.90
44817;DHT22;30529;53.570;9.964;2023-01-29T07:36:13;3.70;99.90
44817;DHT22;30529;53.570;9.964;2023-01-29T07:38:40;3.70;99.90
44817;DHT22;30529;53.570;9.964;2023-01-29T07:41:06;3.60;99.90
44817;DHT22;30529;53.570;9.964;2023-01-29T07:43:32;3.60;99.90
44817;DHT22;30529;53.570;9.964;2023-01-29T07:46:02;3.60;99.90
44817;DHT22;30529;53.570;9.964;2023-01-29T07:48:28;3.50;99.90
44817;DHT22;30529;53.570;9.964;2023-01-29T07:50:55;3.50;99.90
44817;DHT22;30529;53.570;9.964;2023-01-29T07:53:24;3.50;99.90
44817;DHT22;30529;53.570;9.964;2023-01-29T07:55:53;3.50;99.90
44817;DHT22;30529;53.570;9.964;2023-01-29T07:58:19;3.40;99.90
44817;DHT22;30529;53.570;9.964;2023-01-29T08:00:48;3.40;99.90
44817;DHT22;30529;53.570;9.964;2023-01-29T08:03:16;3.40;99.90
44817;DHT22;30529;53.570;9.964;2023-01-29T08:05:43;3.40;99.90
44817;DHT22;30529;53.570;9.964;2023-01-29T08:08:13;3.40;99.90
44817;DHT22;30529;53.570;9.964;2023-01-29T08:10:39;3.50;99.90
44817;DHT22;30529;53.570;9.964;2023-01-29T08:13:08;3.50;99.90
44817;DHT22;30529;53.570;9.964;2023-01-29T08:15:34;3.50;99.90
44817;DHT22;30529;53.570;9.964;2023-01-29T08:18:18;3.60;99.90
44817;DHT22;30529;53.570;9.964;2023-01-29T08:20:44;3.70;99.90
44817;DHT22;30529;53.570;9.964;2023-01-29T08:23:14;3.70;99.90
44817;DHT22;30529;53.570;9.964;2023-01-29T08:25:41;3.70;99.90
44817;DHT22;30529;53.570;9.964;2023-01-29T08:28:07;3.80;99.90
44817;DHT22;30529;53.570;9.964;2023-01-29T08:30:34;3.80;99.90
44817;DHT22;30529;53.570;9.964;2023-01-29T08:33:01;3.90;99.90
44817;DHT22;30529;53.570;9.964;2023-01-29T08:35:30;3.90;99.90
44817;DHT22;30529;53.570;9.964;2023-01-29T08:37:58;3.90;99.90
44817;DHT22;30529;53.570;9.964;2023-01-29T08:40:25;3.90;99.90
44817;DHT22;30529;53.570;9.964;2023-01-29T08:42:52;4.00;99.90
44817;DHT22;30529;53.570;9.964;2023-01-29T08:45:20;4.00;99.90
44817;DHT22;30529;53.570;9.964;2023-01-29T08:47:47;4.00;99.90
44817;DHT22;30529;53.570;9.964;2023-01-29T08:50:15;4.00;99.90
44817;DHT22;30529;53.570;9.964;2023-01-29T08:52:42;4.00;99.90
44817;DHT22;30529;53.570;9.964;2023-01-29T08:55:08;4.00;99.90
44817;DHT22;30529;53.570;9.964;2023-01-29T08:57:35;4.00;99.90
44817;DHT22;30529;53.570;9.964;2023-01-29T09:00:02;4.10;99.90
44817;DHT22;30529;53.570;9.964;2023-01-29T09:02:28;4.10;99.90
44817;DHT22;30529;53.570;9.964;2023-01-29T09:04:54;4.10;99.90
44817;DHT22;30529;53.570;9.964;2023-01-29T09:07:20;4.10;99.90
44817;DHT22;30529;53.570;9.964;2023-01-29T09:09:46;4.20;99.90
44817;DHT22;30529;53.570;9.964;2023-01-29T09:12:12;4.20;99.90
44817;DHT22;30529;53.570;9.964;2023-01-29T09:14:45;4.20;99.90
44817;DHT22;30529;53.570;9.964;2023-01-29T09:17:16;4.20;99.90
44817;DHT22;30529;53.570;9.964;2023-01-29T09:19:42;4.20;99.90
44817;DHT22;30529;53.570;9.964;2023-01-29T09:22:08;4.20;99.90
44817;DHT22;30529;53.570;9.964;2023-01-29T09:24:34;4.20;99.90
44817;DHT22;30529;53.570;9.964;2023-01-29T09:27:00;4.20;99.90
44817;DHT22;30529;53.570;9.964;2023-01-29T09:29:26;4.30;99.90
44817;DHT22;30529;53.570;9.964;2023-01-29T09:31:53;4.30;99.90
44817;DHT22;30529;53.570;9.964;2023-01-29T09:34:21;4.30;99.90
44817;DHT22;30529;53.570;9.964;2023-01-29T09:36:47;4.40;99.90
44817;DHT22;30529;53.570;9.964;2023-01-29T09:39:13;4.40;99.90
44817;DHT22;30529;53.570;9.964;2023-01-29T09:42:02;4.40;99.90
44817;DHT22;30529;53.570;9.964;2023-01-29T09:44:44;4.40;99.90
44817;DHT22;30529;53.570;9.964;2023-01-29T09:47:14;4.40;99.90
44817;DHT22;30529;53.570;9.964;2023-01-29T09:49:44;4.40;99.90
44817;DHT22;30529;53.570;9.964;2023-01-29T09:52:21;4.40;99.90
44817;DHT22;30529;53.570;9.964;2023-01-29T09:58:32;4.50;99.90
44817;DHT22;30529;53.570;9.964;2023-01-29T10:06:22;4.40;99.90
44817;DHT22;30529;53.570;9.964;2023-01-29T10:11:37;4.40;99.90
44817;DHT22;30529;53.570;9.964;2023-01-29T10:14:18;4.50;99.90
44817;DHT22;30529;53.570;9.964;2023-01-29T10:17:05;4.50;99.90
44817;DHT22;30529;53.570;9.964;2023-01-29T10:22:40;4.50;99.90
44817;DHT22;30529;53.570;9.964;2023-01-29T10:25:17;4.60;99.90
44817;DHT22;30529;53.570;9.964;2023-01-29T10:27:54;4.60;99.90
44817;DHT22;30529;53.570;9.964;2023-01-29T10:30:39;4.60;99.90
44817;DHT22;30529;53.570;9.964;2023-01-29T10:33:19;4.60;99.90
44817;DHT22;30529;53.570;9.964;2023-01-29T10:35:53;4.60;99.90
44817;DHT22;30529;53.570;9.964;2023-01-29T10:49:59;4.60;99.90
44817;DHT22;30529;53.570;9.964;2023-01-29T10:58:58;4.50;99.90
44817;DHT22;30529;53.570;9.964;2023-01-29T11:01:30;4.50;99.90
44817;DHT22;30529;53.570;9.964;2023-01-29T11:04:03;4.50;99.90
44817;DHT22;30529;53.570;9.964;2023-01-29T11:06:33;4.60;99.90
44817;DHT22;30529;53.570;9.964;2023-01-29T11:11:56;4.70;99.90
44817;DHT22;30529;53.570;9.964;2023-01-29T11:17:21;4.80;99.90
44817;DHT22;30529;53.570;9.964;2023-01-29T11:19:55;4.80;99.90
44817;DHT22;30529;53.570;9.964;2023-01-29T11:22:24;4.90;99.90
44817;DHT22;30529;53.570;9.964;2023-01-29T11:25:18;4.90;99.90
44817;DHT22;30529;53.570;9.964;2023-01-29T11:27:53;4.80;99.90
44817;DHT22;30529;53.570;9.964;2023-01-29T11:32:50;4.90;99.90
44817;DHT22;30529;53.570;9.964;2023-01-29T11:37:44;4.90;99.90
44817;DHT22;30529;53.570;9.964;2023-01-29T11:40:34;4.90;99.90
44817;DHT22;30529;53.570;9.964;2023-01-29T11:43:12;4.90;99.90
44817;DHT22;30529;53.570;9.964;2023-01-29T11:45:41;4.90;99.90
44817;DHT22;30529;53.570;9.964;2023-01-29T11:48:17;4.90;99.90
44817;DHT22;30529;53.570;9.964;2023-01-29T11:51:24;4.90;99.90
44817;DHT22;30529;53.570;9.964;2023-01-29T11:54:03;4.90;99.90
44817;DHT22;30529;53.570;9.964;2023-01-29T11:56:43;4.90;99.90
44817;DHT22;30529;53.570;9.964;2023-01-29T11:59:37;4.90;99.90
44817;DHT22;30529;53.570;9.964;2023-01-29T12:02:25;4.90;99.90
44817;DHT22;30529;53.570;9.964;2023-01-29T12:05:04;5.00;99.90
44817;DHT22;30529;53.570;9.964;2023-01-29T12:07:43;5.00;99.90
44817;DHT22;30529;53.570;9.964;2023-01-29T12:10:36;5.00;99.90
44817;DHT22;30529;53.570;9.964;2023-01-29T12:15:39;5.00;99.90
44817;DHT22;30529;53.570;9.964;2023-01-29T12:23:56;5.00;99.90
44817;DHT22;30529;53.570;9.964;2023-01-29T12:26:42;5.00;99.90
44817;DHT22;30529;53.570;9.964;2023-01-29T12:29:39;5.00;99.90
44817;DHT22;30529;53.570;9.964;2023-01-29T12:38:18;5.00;99.90
44817;DHT22;30529;53.570;9.964;2023-01-29T12:44:06;5.00;99.90
44817;DHT22;30529;53.570;9.964;2023-01-29T12:46:42;4.90;99.90
44817;DHT22;30529;53.570;9.964;2023-01-29T12:49:22;4.90;99.90
44817;DHT22;30529;53.570;9.964;2023-01-29T12:51:55;4.90;99.90
44817;DHT22;30529;53.570;9.964;2023-01-29T12:54:41;4.90;99.90
44817;DHT22;30529;53.570;9.964;2023-01-29T12:58:02;4.90;99.90
44817;DHT22;30529;53.570;9.964;2023-01-29T13:00:35;5.00;99.90
44817;DHT22;30529;53.570;9.964;2023-01-29T13:03:34;5.00;99.90
44817;DHT22;30529;53.570;9.964;2023-01-29T13:06:13;5.00;99.90
44817;DHT22;30529;53.570;9.964;2023-01-29T13:08:48;5.00;99.90
44817;DHT22;30529;53.570;9.964;2023-01-29T13:16:22;5.10;99.90
44817;DHT22;30529;53.570;9.964;2023-01-29T13:19:20;5.10;99.90
44817;DHT22;30529;53.570;9.964;2023-01-29T13:21:45;5.00;99.90
44817;DHT22;30529;53.570;9.964;2023-01-29T13:24:14;5.00;99.90
44817;DHT22;30529;53.570;9.964;2023-01-29T13:26:45;5.00;99.90
44817;DHT22;30529;53.570;9.964;2023-01-29T13:29:25;5.00;99.90
44817;DHT22;30529;53.570;9.964;2023-01-29T13:31:58;4.90;99.90
44817;DHT22;30529;53.570;9.964;2023-01-29T13:34:36;5.00;99.90
44817;DHT22;30529;53.570;9.964;2023-01-29T13:37:21;5.00;99.90
44817;DHT22;30529;53.570;9.964;2023-01-29T13:39:51;5.00;99.90
44817;DHT22;30529;53.570;9.964;2023-01-29T13:45:02;5.00;99.90
44817;DHT22;30529;53.570;9.964;2023-01-29T13:47:37;5.00;99.90
44817;DHT22;30529;53.570;9.964;2023-01-29T13:50:46;5.00;99.90
44817;DHT22;30529;53.570;9.964;2023-01-29T13:57:48;5.00;99.90
44817;DHT22;30529;53.570;9.964;2023-01-29T14:04:23;5.00;99.90
44817;DHT22;30529;53.570;9.964;2023-01-29T14:06:58;4.90;99.90
44817;DHT22;30529;53.570;9.964;2023-01-29T14:12:55;5.00;99.90
44817;DHT22;30529;53.570;9.964;2023-01-29T14:16:34;5.00;99.90
44817;DHT22;30529;53.570;9.964;2023-01-29T14:20:22;5.00;99.90
44817;DHT22;30529;53.570;9.964;2023-01-29T14:30:29;4.90;99.90
44817;DHT22;30529;53.570;9.964;2023-01-29T14:33:34;4.90;99.90
44817;DHT22;30529;53.570;9.964;2023-01-29T14:36:29;4.90;99.90
44817;DHT22;30529;53.570;9.964;2023-01-29T14:39:40;4.90;99.90
44817;DHT22;30529;53.570;9.964;2023-01-29T14:42:55;4.90;99.90
44817;DHT22;30529;53.570;9.964;2023-01-29T14:45:33;4.90;99.90
44817;DHT22;30529;53.570;9.964;2023-01-29T14:51:09;5.00;99.90
44817;DHT22;30529;53.570;9.964;2023-01-29T14:56:32;5.00;99.90
44817;DHT22;30529;53.570;9.964;2023-01-29T14:59:25;4.90;99.90
44817;DHT22;30529;53.570;9.964;2023-01-29T15:02:21;4.90;99.90
44817;DHT22;30529;53.570;9.964;2023-01-29T15:05:05;4.80;99.90
44817;DHT22;30529;53.570;9.964;2023-01-29T15:07:57;4.80;99.90
44817;DHT22;30529;53.570;9.964;2023-01-29T15:10:41;4.80;99.90
44817;DHT22;30529;53.570;9.964;2023-01-29T15:14:17;4.80;99.90
44817;DHT22;30529;53.570;9.964;2023-01-29T15:17:45;4.70;99.90
44817;DHT22;30529;53.570;9.964;2023-01-29T15:21:13;4.80;99.90
44817;DHT22;30529;53.570;9.964;2023-01-29T15:23:40;4.80;99.90
44817;DHT22;30529;53.570;9.964;2023-01-29T15:29:35;4.80;99.90
44817;DHT22;30529;53.570;9.964;2023-01-29T15:33:17;4.80;99.90
44817;DHT22;30529;53.570;9.964;2023-01-29T15:36:01;4.70;99.90
44817;DHT22;30529;53.570;9.964;2023-01-29T15:38:32;4.70;99.90
44817;DHT22;30529;53.570;9.964;2023-01-29T15:49:10;4.70;99.90
44817;DHT22;30529;53.570;9.964;2023-01-29T15:51:59;4.70;99.90
44817;DHT22;30529;53.570;9.964;2023-01-29T15:55:20;4.70;99.90
44817;DHT22;30529;53.570;9.964;2023-01-29T15:57:51;4.70;99.90
44817;DHT22;30529;53.570;9.964;2023-01-29T16:42:50;4.40;99.90
44817;DHT22;30529;53.570;9.964;2023-01-29T16:59:30;4.40;99.90
44817;DHT22;30529;53.570;9.964;2023-01-29T17:07:17;4.30;99.90
44817;DHT22;30529;53.570;9.964;2023-01-29T17:14:00;4.30;99.90
44817;DHT22;30529;53.570;9.964;2023-01-29T17:16:45;4.30;99.90
44817;DHT22;30529;53.570;9.964;2023-01-29T17:19:37;4.30;99.90
44817;DHT22;30529;53.570;9.964;2023-01-29T17:26:14;4.30;99.90
44817;DHT22;30529;53.570;9.964;2023-01-29T17:28:47;4.30;99.90
44817;DHT22;30529;53.570;9.964;2023-01-29T17:32:00;4.30;99.90
44817;DHT22;30529;53.570;9.964;2023-01-29T17:34:44;4.30;99.90
44817;DHT22;30529;53.570;9.964;2023-01-29T17:37:35;4.30;99.90
44817;DHT22;30529;53.570;9.964;2023-01-29T17:43:03;4.20;99.90
44817;DHT22;30529;53.570;9.964;2023-01-29T17:45:41;4.10;99.90
44817;DHT22;30529;53.570;9.964;2023-01-29T17:48:27;4.10;99.90
44817;DHT22;30529;53.570;9.964;2023-01-29T17:51:45;4.10;99.90
44817;DHT22;30529;53.570;9.964;2023-01-29T18:15:43;3.90;99.90
44817;DHT22;30529;53.570;9.964;2023-01-29T18:24:39;4.00;99.90
44817;DHT22;30529;53.570;9.964;2023-01-29T18:27:29;4.00;99.90
44817;DHT22;30529;53.570;9.964;2023-01-29T18:30:04;3.90;99.90
44817;DHT22;30529;53.570;9.964;2023-01-29T18:32:30;3.90;99.90
44817;DHT22;30529;53.570;9.964;2023-01-29T18:35:23;4.00;99.90
44817;DHT22;30529;53.570;9.964;2023-01-29T18:38:03;3.90;99.90
44817;DHT22;30529;53.570;9.964;2023-01-29T18:44:01;3.90;99.90
44817;DHT22;30529;53.570;9.964;2023-01-29T18:46:33;3.90;99.90
44817;DHT22;30529;53.570;9.964;2023-01-29T18:49:02;3.90;99.90
44817;DHT22;30529;53.570;9.964;2023-01-29T18:55:23;3.90;99.90
44817;DHT22;30529;53.570;9.964;2023-01-29T18:58:07;3.90;99.90
44817;DHT22;30529;53.570;9.964;2023-01-29T19:01:29;3.90;99.90
44817;DHT22;30529;53.570;9.964;2023-01-29T19:04:17;3.90;99.90
44817;DHT22;30529;53.570;9.964;2023-01-29T19:06:44;3.90;99.90
44817;DHT22;30529;53.570;9.964;2023-01-29T19:10:02;3.90;99.90
44817;DHT22;30529;53.570;9.964;2023-01-29T19:13:23;3.90;99.90
44817;DHT22;30529;53.570;9.964;2023-01-29T19:23:26;4.00;99.90
44817;DHT22;30529;53.570;9.964;2023-01-29T19:29:44;3.90;99.90
44817;DHT22;30529;53.570;9.964;2023-01-29T19:32:16;3.90;99.90
44817;DHT22;30529;53.570;9.964;2023-01-29T19:34:50;3.90;99.90
44817;DHT22;30529;53.570;9.964;2023-01-29T19:37:27;3.90;99.90
44817;DHT22;30529;53.570;9.964;2023-01-29T19:40:00;3.90;99.90
44817;DHT22;30529;53.570;9.964;2023-01-29T19:42:57;3.90;99.90
44817;DHT22;30529;53.570;9.964;2023-01-29T19:45:27;3.90;99.90
44817;DHT22;30529;53.570;9.964;2023-01-29T19:51:57;3.90;99.90
44817;DHT22;30529;53.570;9.964;2023-01-29T19:58:13;3.90;99.90
44817;DHT22;30529;53.570;9.964;2023-01-29T20:00:42;3.90;99.90
44817;DHT22;30529;53.570;9.964;2023-01-29T20:03:11;3.90;99.90
44817;DHT22;30529;53.570;9.964;2023-01-29T20:05:40;3.90;99.90
44817;DHT22;30529;53.570;9.964;2023-01-29T20:08:06;3.90;99.90
44817;DHT22;30529;53.570;9.964;2023-01-29T20:10:35;3.90;99.90
44817;DHT22;30529;53.570;9.964;2023-01-29T20:13:01;3.90;99.90
44817;DHT22;30529;53.570;9.964;2023-01-29T20:15:27;3.90;99.90
44817;DHT22;30529;53.570;9.964;2023-01-29T20:17:54;3.90;99.90
44817;DHT22;30529;53.570;9.964;2023-01-29T20:20:20;3.90;99.90
44817;DHT22;30529;53.570;9.964;2023-01-29T20:22:46;3.90;99.90
44817;DHT22;30529;53.570;9.964;2023-01-29T20:25:12;3.90;99.90
44817;DHT22;30529;53.570;9.964;2023-01-29T20:27:39;3.90;99.90
44817;DHT22;30529;53.570;9.964;2023-01-29T20:30:06;3.90;99.90
44817;DHT22;30529;53.570;9.964;2023-01-29T20:32:33;3.90;99.90
44817;DHT22;30529;53.570;9.964;2023-01-29T20:35:02;3.90;99.90
44817;DHT22;30529;53.570;9.964;2023-01-29T20:37:32;3.90;99.90
44817;DHT22;30529;53.570;9.964;2023-01-29T20:39:58;3.90;99.90
44817;DHT22;30529;53.570;9.964;2023-01-29T20:42:24;3.90;99.90
44817;DHT22;30529;53.570;9.964;2023-01-29T20:44:50;3.90;99.90
44817;DHT22;30529;53.570;9.964;2023-01-29T20:47:16;3.90;99.90
44817;DHT22;30529;53.570;9.964;2023-01-29T20:49:42;3.90;99.90
44817;DHT22;30529;53.570;9.964;2023-01-29T20:52:08;4.00;99.90
44817;DHT22;30529;53.570;9.964;2023-01-29T20:54:35;4.00;99.90
44817;DHT22;30529;53.570;9.964;2023-01-29T20:57:01;3.90;99.90
44817;DHT22;30529;53.570;9.964;2023-01-29T20:59:28;4.00;99.90
44817;DHT22;30529;53.570;9.964;2023-01-29T21:01:54;4.00;99.90